»·PEaware :: N799DS KSBD-KCRQ

N799DS :: KSBD-KCRQ

FLIGHT INFORMATION

Flight Status: Arrived
Operator: Privately registered:
United States
More flights under this callsign
Pilot: Wolfgang B. (15069)
Aircraft: CESSNA 172 SKYHAWK
(C172)
More flights by this aircraft type
Origin: KSBD San Bernardino Intl
United States
Destination: KCRQ McClellan-Palomar
United States
More flights between these airports :: More routes between these airports
Route: +PDZ V186 ROBNN V458 OCN
File this flight plan on PilotEdge
Remarks:
Altitude:
(Current/Filed)
7,000ft
Speed:
(Current/Filed)
120kts
Departed: 03-Dec-17 03:00 PM
Arrived: 03-Dec-17 03:46 PM
Distance/Time
Traveled:
58nm/0:45
Distance/Time
To Go:
Arrived

Flight Plot

Page will automatically refresh every two minutes.


Map Options




Map Legend


Flown Route
Filed Route
Departure Airport
Arrival Airport
Navaid (VOR, NDB)
Fix

Horizontal Profiles

Position Reports

Time Latitude Longitude Heading Altitude Ground
Speed
03-Dec-17 14:50 34.102425 -117.224717 93 1146ft 0kts
03-Dec-17 14:51 34.102425 -117.224717 93 1146ft 0kts
03-Dec-17 14:52 34.102425 -117.224717 93 1146ft 0kts
03-Dec-17 14:53 34.102425 -117.224717 93 1146ft 0kts
03-Dec-17 14:54 34.102425 -117.224716 93 1146ft 0kts
03-Dec-17 14:55 34.102425 -117.224716 93 1146ft 0kts
03-Dec-17 14:56 34.102425 -117.224716 93 1146ft 0kts
03-Dec-17 14:57 34.102047 -117.224748 196 1146ft 5kts
03-Dec-17 14:58 34.100444 -117.225886 200 1142ft 11kts
03-Dec-17 14:59 34.099935 -117.226676 247 1139ft 8kts
03-Dec-17 15:00 34.097691 -117.232976 258 1123ft 21kts
03-Dec-17 15:01 34.096112 -117.236259 155 1113ft 0kts
03-Dec-17 15:02 34.096112 -117.236259 155 1113ft 0kts
03-Dec-17 15:03 34.096112 -117.236259 155 1113ft 0kts
03-Dec-17 15:04 34.095517 -117.234112 67 1119ft 29kts
03-Dec-17 15:05 34.095504 -117.211549 168 1771ft 82kts
03-Dec-17 15:06 34.082797 -117.228680 236 2690ft 70kts
03-Dec-17 15:07 34.072022 -117.248714 245 3497ft 72kts
03-Dec-17 15:08 34.062064 -117.269062 244 4293ft 71kts
03-Dec-17 15:09 34.051594 -117.289057 242 5070ft 72kts
03-Dec-17 15:10 34.039986 -117.308458 242 5820ft 71kts
03-Dec-17 15:11 34.030053 -117.328948 251 6517ft 71kts
03-Dec-17 15:12 34.018096 -117.349850 240 6978ft 94kts
03-Dec-17 15:13 34.001143 -117.379304 241 6976ft 110kts
03-Dec-17 15:14 33.984170 -117.409788 242 6978ft 113kts
03-Dec-17 15:15 33.968417 -117.438432 243 6979ft 114kts
03-Dec-17 15:16 33.950907 -117.470325 243 6980ft 114kts
03-Dec-17 15:17 33.933646 -117.501781 243 6980ft 114kts
03-Dec-17 15:18 33.909097 -117.521217 158 6979ft 137kts
03-Dec-17 15:19 33.878325 -117.496193 148 6978ft 139kts
03-Dec-17 15:20 33.846656 -117.469669 148 6979ft 138kts
03-Dec-17 15:21 33.814990 -117.443143 148 6979ft 139kts
03-Dec-17 15:22 33.783335 -117.416644 148 6979ft 139kts
03-Dec-17 15:23 33.751551 -117.390064 148 6979ft 139kts
03-Dec-17 15:24 33.719804 -117.363548 147 6980ft 139kts
03-Dec-17 15:25 33.688113 -117.337092 146 6980ft 138kts
03-Dec-17 15:26 33.656542 -117.310762 146 6980ft 138kts
03-Dec-17 15:27 33.625015 -117.284496 146 6980ft 138kts
03-Dec-17 15:28 33.593435 -117.258275 146 6980ft 138kts
03-Dec-17 15:29 33.561941 -117.232105 146 6980ft 138kts
03-Dec-17 15:30 33.530453 -117.205941 146 6981ft 138kts
03-Dec-17 15:31 33.498882 -117.179732 146 6981ft 138kts
03-Dec-17 15:32 33.465581 -117.159053 172 6980ft 135kts
03-Dec-17 15:33 33.428565 -117.151081 173 6981ft 135kts
03-Dec-17 15:34 33.391855 -117.143281 174 6990ft 134kts
03-Dec-17 15:35 33.356733 -117.126566 151 6501ft 139kts
03-Dec-17 15:36 33.323957 -117.101739 151 5799ft 139kts
03-Dec-17 15:37 33.292948 -117.077457 151 5098ft 128kts
03-Dec-17 15:38 33.263647 -117.054015 151 4397ft 127kts
03-Dec-17 15:39 33.233745 -117.030477 150 3991ft 130kts
03-Dec-17 15:40 33.203548 -117.006858 150 3990ft 130kts
03-Dec-17 15:41 33.172325 -116.993580 222 3983ft 117kts
03-Dec-17 15:42 33.169292 -117.027474 259 3635ft 98kts
03-Dec-17 15:43 33.164431 -117.055848 259 3143ft 107kts
03-Dec-17 15:44 33.159739 -117.084434 259 3009ft 104kts
03-Dec-17 15:45 33.154520 -117.116780 259 3008ft 94kts
03-Dec-17 15:46 33.149597 -117.147689 259 2523ft 98kts
03-Dec-17 15:47 33.144397 -117.180041 259 1968ft 100kts
03-Dec-17 15:48 33.139207 -117.212267 259 1401ft 98kts
03-Dec-17 15:49 33.134043 -117.244274 259 850ft 99kts
03-Dec-17 15:50 33.130058 -117.268723 261 423ft 57kts
03-Dec-17 15:51 33.127570 -117.282545 229 312ft 20kts
03-Dec-17 15:52 33.126897 -117.283448 250 312ft 0kts
03-Dec-17 15:53 33.127384 -117.280129 78 309ft 26kts
03-Dec-17 15:54 33.127634 -117.276750 356 309ft 0kts

Navigation Log

Ident Type
Flight plan parsing failed, navigation log unavailable